Latest Weather Observations for Milingimbi

IDD60801

Issued at 2:01 pm CST Saturday 18 April 2015 (issued every 30 minutes, with the page automatically refreshed every 10 minutes)

About weather observations | Map of weather stations | Latest weather observations for NT | Other Formats
Station Details ID: 014404 Name: MILINGIMBI AIRPORT Lat: -12.09 Lon: 134.89 Height: 15.0 m
Data from the previous 72 hours. | See also: Recent months at Milingimbi
Date/Time
CST
Temp
°C
App
Temp
°C
Dew
Point
Rel
Hum
%
Delta-T
°C
Wind Press
QNH
hPa
Press
MSL
hPa
Rain
since 9 am
mm
Dir
 
Spd
km/h
Gust
km/h
Spd
kts
Gust
kts
18/02:00pm 32.1 32.8 20.4 50 7.8 E 17 24 9 13 1009.9 - 0.0
18/01:30pm 32.2 33.1 20.8 51 7.6 E 17 26 9 14 1010.2 - 0.0
18/01:00pm 31.2 32.8 21.4 56 6.6 E 15 24 8 13 1010.5 - 0.0
18/12:30pm 31.1 32.4 21.6 57 6.4 E 17 26 9 14 1010.9 - 0.0
18/12:00pm 31.3 32.3 22.9 61 5.8 SE 22 30 12 16 1011.5 1011.4 0.0
18/11:30am 30.9 32.1 22.2 59 5.9 ESE 19 28 10 15 1012.1 - 0.0
18/11:00am 30.8 31.9 22.4 61 5.7 SE 20 26 11 14 1012.3 - 0.0
18/10:30am 29.9 30.2 21.6 61 5.6 ESE 22 28 12 15 1012.7 - 0.0
18/10:00am 29.5 31.1 22.2 65 4.9 SE 17 26 9 14 1012.7 - 0.0
18/09:30am 29.2 30.3 22.4 66 4.6 SE 20 28 11 15 1012.9 - 0.0
18/09:00am 28.9 30.3 22.6 69 4.3 ESE 19 28 10 15 1013.0 1012.9 1.4
18/08:30am 28.4 30.6 23.3 74 3.5 ESE 17 24 9 13 1012.9 - 1.4
18/08:00am 27.0 30.4 23.3 80 2.5 SSE 11 15 6 8 1012.8 - 1.4
18/07:30am 26.0 29.5 23.5 86 1.7 SSE 11 13 6 7 1012.6 - 1.4
18/07:00am 24.7 28.7 23.1 91 1.1 S 7 9 4 5 1012.1 - 1.4
18/06:30am 24.8 28.5 23.2 91 1.1 S 9 13 5 7 1011.6 - 1.4
18/06:00am 25.1 29.2 23.2 89 1.3 S 7 9 4 5 1011.2 1011.1 1.2
18/05:30am 25.6 29.5 23.6 89 1.4 SSE 9 11 5 6 1010.9 - 1.2
18/05:00am 25.6 29.5 23.6 89 1.4 SSE 9 13 5 7 1010.8 - 1.2
18/04:30am 25.7 29.3 23.7 89 1.4 SE 11 13 6 7 1010.6 - 1.2
18/04:00am 25.7 28.9 23.7 89 1.4 SSE 13 17 7 9 1010.5 - 1.2
18/03:30am 25.5 29.1 23.7 90 1.2 SSE 11 13 6 7 1010.6 - 1.2
18/03:00am 25.6 29.7 24.0 91 1.1 SSE 9 13 5 7 1010.8 1010.7 1.2
18/02:30am 25.5 29.7 24.1 92 1.0 SSE 9 11 5 6 1011.1 - 1.2
18/02:00am 25.7 30.0 24.3 92 1.0 S 9 13 5 7 1011.2 - 1.2
18/01:30am 25.8 30.1 24.2 91 1.1 S 9 11 5 6 1011.3 - 1.2
18/01:00am 26.0 30.5 24.0 89 1.4 S 7 11 4 6 1011.5 - 1.2
18/12:30am 26.3 30.9 24.2 88 1.4 SSE 7 9 4 5 1011.7 - 1.2
18/12:00am 26.7 31.5 24.4 87 1.6 S 7 9 4 5 1011.8 1011.7 1.2
 
Date/Time
CST
Temp
°C
App
Temp
°C
Dew
Point
Rel
Hum
%
Delta-T
°C
Wind Press
QNH
hPa
Press
MSL
hPa
Rain
since 9 am
mm
Dir
 
Spd
km/h
Gust
km/h
Spd
kts
Gust
kts
17/11:30pm 27.2 32.0 24.5 85 1.9 S 7 11 4 6 1011.9 - 1.2
17/11:00pm 27.5 33.6 24.5 84 2.1 CALM 0 6 0 3 1011.9 - 1.2
17/10:30pm 27.7 32.5 24.5 83 2.2 SSE 7 11 4 6 1012.0 - 1.2
17/10:00pm 26.5 32.5 24.2 87 1.6 CALM 0 6 0 3 1012.1 - 1.2
17/09:30pm 26.6 32.5 24.1 86 1.7 CALM 0 0 0 0 1012.0 - 1.2
17/09:00pm 26.5 29.9 23.4 83 2.1 NNE 11 19 6 10 1011.7 1011.6 1.2
17/08:30pm 26.6 29.3 23.5 83 2.1 NE 15 28 8 15 1011.5 - 1.2
17/08:00pm 27.2 30.4 23.7 81 2.4 ENE 13 22 7 12 1011.3 - 1.2
17/07:30pm 27.3 30.8 23.5 80 2.6 NE 11 17 6 9 1010.8 - 1.2
17/07:00pm 26.5 29.8 23.8 85 1.9 NE 13 20 7 11 1010.6 - 1.0
17/06:30pm 26.7 30.9 24.7 89 1.4 ESE 11 15 6 8 1010.3 - 0.8
17/06:00pm 26.3 27.4 23.6 85 1.8 ESE 24 35 13 19 1010.2 1010.1 0.4
17/05:30pm 29.7 32.7 23.4 69 4.3 E 13 22 7 12 1009.7 - 0.0
17/05:00pm 30.4 33.0 23.3 66 4.9 ENE 15 24 8 13 1009.4 - 0.0
17/04:30pm 31.3 34.6 23.9 64 5.1 NE 13 22 7 12 1009.3 - 0.0
17/04:00pm 31.5 34.1 23.3 61 5.7 NNE 15 22 8 12 1009.1 - 0.0
17/03:30pm 31.9 34.4 23.2 60 6.0 NE 15 22 8 12 1009.2 - 0.0
17/03:00pm 31.9 33.8 22.0 55 6.7 NNE 15 24 8 13 1009.4 1009.3 0.0
17/02:30pm 32.2 33.9 21.7 54 7.1 ENE 15 20 8 11 1009.6 - 0.0
17/02:00pm 32.1 33.4 21.6 53 7.1 ENE 17 26 9 14 1010.2 - 0.0
17/01:30pm 31.7 33.3 22.1 56 6.5 ENE 17 26 9 14 1010.6 - 0.0
17/01:00pm 31.5 33.6 22.5 59 6.1 E 15 26 8 14 1011.1 - 0.0
17/12:30pm 31.3 33.8 23.1 61 5.6 E 15 24 8 13 1011.6 - 0.0
17/12:00pm 30.4 33.4 23.3 66 4.9 E 13 20 7 11 1012.0 1011.9 0.0
17/11:30am 30.3 33.7 24.0 69 4.4 E 13 24 7 13 1012.6 - 0.0
17/11:00am 29.6 32.1 23.8 71 4.0 E 17 24 9 13 1013.1 - 0.0
17/10:30am 29.7 32.4 23.4 69 4.3 ESE 15 22 8 12 1013.4 - 0.0
17/10:00am 29.7 32.1 23.6 69 4.2 ESE 17 22 9 12 1013.4 - 0.0
17/09:30am 29.7 32.9 24.3 73 3.8 ESE 15 20 8 11 1013.6 - 0.0
17/09:00am 28.8 30.5 23.0 71 4.0 ESE 19 30 10 16 1013.4 1013.3 4.6
17/08:30am 28.6 30.8 23.3 73 3.6 ESE 17 28 9 15 1013.0 - 4.6
17/08:00am 28.4 31.0 23.3 74 3.5 ESE 15 22 8 12 1012.9 - 4.6
17/07:30am 27.1 31.6 23.6 81 2.4 SE 6 15 3 8 1012.7 - 4.6
17/07:00am 25.0 29.5 22.9 88 1.4 SSE 4 6 2 3 1012.3 - 4.6
17/06:30am 25.1 28.7 23.0 88 1.4 SSE 9 11 5 6 1012.1 - 4.6
17/06:00am 25.2 29.1 22.9 87 1.6 SSE 7 11 4 6 1011.6 1011.5 4.6
17/05:30am 25.3 28.9 23.0 87 1.6 SE 9 13 5 7 1011.2 - 4.6
17/05:00am 25.3 28.4 22.8 86 1.7 SSE 11 13 6 7 1011.1 - 4.6
17/04:30am 25.4 28.8 22.7 85 1.8 SSE 9 13 5 7 1011.3 - 4.6
17/04:00am 25.7 28.8 22.8 84 2.0 SSE 11 13 6 7 1011.3 - 4.6
17/03:30am 25.8 28.4 22.7 83 2.1 SE 13 17 7 9 1011.5 - 4.6
17/03:00am 25.7 28.6 22.4 82 2.2 SE 11 15 6 8 1011.8 1011.7 4.6
17/02:30am 25.8 28.6 22.3 81 2.4 SSE 11 15 6 8 1012.0 - 4.6
17/02:00am 25.9 28.6 22.2 80 2.5 SSE 11 13 6 7 1012.3 - 4.6
17/01:30am 26.0 28.7 22.1 79 2.6 SSE 11 13 6 7 1012.5 - 4.6
17/01:00am 26.3 28.9 21.9 77 2.9 SSE 11 15 6 8 1012.9 - 4.6
17/12:30am 26.6 28.9 22.0 76 3.1 SE 13 17 7 9 1013.4 - 4.6
17/12:00am 27.4 29.6 22.6 75 3.2 SE 15 20 8 11 1013.8 1013.7 4.6
 
Date/Time
CST
Temp
°C
App
Temp
°C
Dew
Point
Rel
Hum
%
Delta-T
°C
Wind Press
QNH
hPa
Press
MSL
hPa
Rain
since 9 am
mm
Dir
 
Spd
km/h
Gust
km/h
Spd
kts
Gust
kts
16/11:30pm 27.8 28.5 22.3 72 3.7 ESE 22 32 12 17 1013.9 - 4.6
16/11:00pm 28.1 28.2 21.9 69 4.2 ESE 24 39 13 21 1014.1 - 4.6
16/10:30pm 28.1 29.1 22.1 70 4.0 ESE 20 30 11 16 1014.2 - 4.6
16/10:00pm 27.6 31.1 23.6 79 2.7 SE 11 17 6 9 1014.1 - 4.6
16/09:30pm 27.4 30.7 23.8 81 2.5 SE 13 20 7 11 1013.9 - 4.6
16/09:00pm 27.3 32.4 24.7 86 1.8 SSE 6 7 3 4 1013.8 1013.7 4.6
16/08:30pm 27.2 32.3 24.6 86 1.8 S 6 7 3 4 1013.4 - 4.6
16/08:00pm 26.8 33.0 24.6 88 1.5 CALM 0 0 0 0 1013.1 - 4.6
16/07:30pm 26.5 32.8 24.7 90 1.3 CALM 0 0 0 0 1012.4 - 4.6
16/07:00pm 26.7 31.5 24.4 87 1.6 E 7 11 4 6 1012.1 - 4.4
16/06:30pm 27.1 31.5 23.8 82 2.3 SSW 7 11 4 6 1011.9 - 2.6
16/06:00pm 27.7 30.7 23.3 77 3.0 S 13 17 7 9 1011.6 1011.5 2.2
16/05:30pm 30.3 33.8 23.5 67 4.7 E 11 19 6 10 1011.4 - 2.2
16/05:00pm 30.9 34.0 23.5 64 5.1 ENE 13 19 7 10 1011.3 - 2.2
16/04:30pm 31.4 33.9 23.2 61 5.7 ENE 15 26 8 14 1011.0 - 2.2
16/04:00pm 31.6 34.4 23.7 63 5.5 NE 15 24 8 13 1010.8 - 2.2
16/03:30pm 31.5 32.9 22.5 59 6.1 ENE 19 30 10 16 1010.8 - 2.2
16/03:00pm 31.5 33.4 22.8 60 6.0 NE 17 32 9 17 1011.1 1011.0 2.2
16/02:30pm 31.6 34.4 23.7 63 5.5 ENE 15 28 8 15 1011.6 - 2.2
16/02:00pm 31.4 33.6 23.2 61 5.7 ENE 17 26 9 14 1012.0 - 2.2
16/01:30pm 31.8 34.4 23.3 60 5.9 ENE 15 22 8 12 1012.4 - 2.2
16/01:00pm 31.4 34.0 24.0 65 5.2 ENE 17 26 9 14 1012.6 - 2.2
16/12:30pm 31.1 33.0 23.5 64 5.3 ESE 19 24 10 13 1013.2 - 2.2
16/12:00pm 30.1 32.0 23.5 67 4.6 ESE 19 26 10 14 1013.8 1013.7 2.2
16/11:30am 30.8 33.3 24.4 68 4.5 ESE 19 28 10 15 1014.4 - 2.2
16/11:00am 29.6 32.5 23.8 71 4.0 E 15 24 8 13 1014.9 - 2.2
16/10:30am 29.2 31.0 23.2 70 4.1 ESE 19 30 10 16 1015.1 - 2.2
16/10:00am 27.4 30.4 23.4 79 2.7 E 13 24 7 13 1015.2 - 2.2
16/09:30am 25.7 27.1 22.8 84 2.0 E 20 35 11 19 1014.9 - 2.2
16/09:00am 24.5 25.4 22.6 89 1.3 ENE 22 41 12 22 1015.4 1015.3 3.2
16/08:30am 28.0 30.1 23.1 74 3.3 SE 17 22 9 12 1014.5 - 0.0
16/08:00am 27.1 30.2 22.9 78 2.9 SE 11 15 6 8 1014.4 - 0.0
16/07:30am 26.2 29.6 22.7 81 2.4 SSE 9 11 5 6 1013.9 - 0.0
16/07:00am 25.8 29.3 22.9 84 2.0 S 9 13 5 7 1013.7 - 0.0
16/06:30am 25.8 29.0 23.1 85 1.8 SSE 11 15 6 8 1013.2 - 0.0
16/06:00am 25.4 28.9 22.9 86 1.7 SSE 9 11 5 6 1012.9 1012.8 0.0
16/05:30am 25.5 28.6 22.8 85 1.8 SSE 11 15 6 8 1012.8 - 0.0
16/05:00am 25.5 28.1 22.6 84 2.0 SSE 13 17 7 9 1012.8 - 0.0
16/04:30am 25.6 29.0 22.7 84 2.0 SSE 9 15 5 8 1012.8 - 0.0
16/04:00am 25.9 29.4 22.8 83 2.1 SSE 9 15 5 8 1012.8 - 0.0
16/03:30am 26.8 29.1 22.8 79 2.7 ESE 15 24 8 13 1012.9 - 0.0
16/03:00am 27.1 29.0 22.7 77 3.0 ESE 17 28 9 15 1012.8 1012.7 0.0
16/02:30am 27.2 29.4 22.6 76 3.1 ESE 15 26 8 14 1013.0 - 0.0
16/02:00am 27.4 28.7 22.3 73 3.4 ESE 19 30 10 16 1013.0 - 0.0
16/01:30am 27.6 28.7 22.3 73 3.6 ESE 20 30 11 16 1013.3 - 0.0
16/01:00am 27.7 29.1 22.6 74 3.5 ESE 19 28 10 15 1013.8 - 0.0
16/12:30am 27.7 29.1 22.6 74 3.5 ESE 19 26 10 14 1014.1 - 0.0
16/12:00am 27.8 29.7 22.7 74 3.5 ESE 17 26 9 14 1014.5 1014.4 0.0
 
Date/Time
CST
Temp
°C
App
Temp
°C
Dew
Point
Rel
Hum
%
Delta-T
°C
Wind Press
QNH
hPa
Press
MSL
hPa
Rain
since 9 am
mm
Dir
 
Spd
km/h
Gust
km/h
Spd
kts
Gust
kts
15/11:30pm 28.0 29.4 22.5 72 3.7 ESE 19 28 10 15 1014.7 - 0.0
15/11:00pm 28.2 29.3 22.4 71 3.9 ESE 20 30 11 16 1014.8 - 0.0
15/10:30pm 28.3 28.7 22.5 71 3.9 ESE 24 39 13 21 1014.9 - 0.0
15/10:00pm 28.6 29.3 22.3 68 4.3 ESE 22 32 12 17 1014.9 - 0.0
15/09:30pm 28.8 29.5 22.3 68 4.4 ESE 22 30 12 16 1014.7 - 0.0
15/09:00pm 29.1 29.2 21.8 64 4.9 ESE 24 33 13 18 1014.5 1014.4 0.0
15/08:30pm 29.3 29.8 22.0 64 4.9 ESE 22 32 12 17 1014.2 - 0.0
15/08:00pm 29.1 30.9 21.8 64 4.9 SE 15 26 8 14 1013.8 - 0.0
15/07:30pm 29.3 30.8 22.0 64 4.9 SSE 17 20 9 11 1013.3 - 0.0
15/07:00pm 29.3 32.7 23.3 70 4.1 ESE 11 15 6 8 1012.7 - 0.0
15/06:30pm 29.2 33.4 23.4 71 4.0 E 7 11 4 6 1012.4 - 0.0
15/06:00pm 29.5 32.7 23.0 68 4.4 ENE 11 15 6 8 1012.2 1012.1 0.0
15/05:30pm 29.7 32.7 23.4 69 4.3 ENE 13 20 7 11 1012.1 - 0.0
15/05:00pm 29.8 33.3 23.5 69 4.3 ENE 11 20 6 11 1011.9 - 0.0
15/04:30pm 29.9 33.0 22.9 66 4.8 ENE 11 19 6 10 1011.8 - 0.0
15/04:00pm 30.3 32.7 23.0 65 5.0 ENE 15 26 8 14 1011.7 - 0.0
15/03:30pm 29.9 31.8 22.1 63 5.3 ENE 15 24 8 13 1012.0 - 0.0
15/03:00pm 29.4 31.0 22.9 68 4.4 NE 19 26 10 14 1012.1 1012.0 0.0
15/02:30pm 31.2 33.0 22.5 60 5.9 E 17 24 9 13 1012.3 - 0.0

Other Formats:

Comma delimited format used in spreadsheet applications
http://www.bom.gov.au/fwo/IDD60801/IDD60801.94140.axf

JavaScript Object Notation format (JSON) in row-major order
http://www.bom.gov.au/fwo/IDD60801/IDD60801.94140.json